Search for airport 
image banner adimage banner adimage banner ad
image banner ad

CL47 - Hoag

Located in Valley Center, United States

ICAO - CL47, IATA -

Data provided by Airmate  

General information

Coordinates: N33°14'2" W116°58'7"
Elevation is 1650 feet MSL.
Magnetic variation is 13° East
View others Airports in California

Operational data

Special qualification required
Current time UTC:
Current local time:
Weather at : KRNM - Ramona ( 22 km )
METAR: KRNM 231453Z 00000KT 10SM CLR 21/10 A2995 RMK AO2 SLP127 T02110100 53000
View NOTAMs / SUP AIP / TFR affecting this airport [VIEW]
Communications frequencies: [VIEW]

Runways:

Airport contact information

Address: Valley Center United States

Satellite view of CL47